Wyoming, Ohio
Current Conditions -  °F | °C
As of 3:53 PM on Tuesday 27 Jan 2015 (Local Time) from KHAO Reporting Station
Clear Clear  
Wind Chill: -7°   Ceiling: Unl
Heat Index: -2°   Visibility: 10mi
Dew Point: -10°   Wind: 9mph
Humidity: 56%   Direction: 10°N
Pressure: 30.14"   Gusts: NA
Location:  39.246°N, 84.538°W
Report Text: KHAO 272053Z AUTO 01008KT 10SM CLR M02/M10 A3014 RMK AO2 SLP216 60000 T10221100 53010
Loading
Personal Weather Stations






























Interactive Weather Map New forecast layout! Learn more

10-Day Weather Forecast

Advertisements
Track Severe Weather on mobile